Terminal Aerodrome Forecast
Issued by NWS Grand Forks, ND

Home | Current Version | Previous Version | Text Only | Print | Product List | Glossary On
Versions: 1 2 3 4 5 6 7 8 9 10 11 12 13 14 15 16 17 18
000
FTUS43 KFGF 190538
TAFFAR
TAF
KFAR 190538Z 1906/2006 24005KT P6SM FEW150
     FM191200 19006KT P6SM BKN200
     FM191300 19006KT P6SM SCT250
     FM191700 22008KT P6SM FEW250
     FM192000 25007KT P6SM FEW250
     FM200100 VRB03KT P6SM FEW250=

USA.gov is the U.S. government's official web portal to all federal, state and local government web resources and services.